LiveATC.Net - Listen to live air traffic control over the Internet!

Airport/ARTCC Code
Frequency Search
(e.g., 124.400, 128.75)
Site-wide search
 


Browse Feeds
Top 50 Feeds
HF Oceanic Feeds
Coverage Map
Bad Weather Areas

LiveATC FAQ
Offer LiveATC feed
Contact LiveATC.net
Press Inquiries

LiveATC on iPhone
LiveATC on Android

LiveATC Mobile
(Mobile browser)

ATC Audio Archives
Interesting Recordings

LiveATC Forums

Home Page
About LiveATC.net


Terms of Use
Privacy Policy

AIRMETs/SIGMETs

FAA Airport Status
NAS Status
Arrival Demand


Server Software By:
Icecast.org
Liquidsoap


Current Potentially Bad Weather Airports
(updated every 30 minutes - sorted alphabetically by ICAO code)



This page lists LiveATC.net airport areas that may be interesting to listen to because of challenging flying (weather) conditions. Challenging weather conditions include low ceilings, limited visibility, high or gusty winds, or thunderstorms.

Updated: Thu Oct 6 16:10:01 UTC 2022
Click on airport name to go to that airport area's feeds.

CYHZ Del/Gnd/Twr/App #1 Halifax International Airport (Halifax, CA-NS)
WX MAP UNAVAILABLENearest METAR:
CYHZ 061550Z 03007KT 1 1/2SM R14/3000VP6000FT/U +RA BR OVC003 14/14 A2981 RMK ST8 VIS VRB 1-2 CIG VRB 2-4 SLP098 DENSITY ALT 600FT
ENEV Twr/App/ACC Harstad/Narvik Airport (Evenes, Norway)
WX MAP UNAVAILABLENearest METAR:
ENEV 061550Z 24016G28KT 200V280 9999 -DZRA FEW014 SCT023 BKN038 09/06 Q0980 RMK WIND 1400FT 24031G46KT
KACK Tower Nantucket Memorial Airport (Nantucket, US-MA)
kackNearest METAR:
KACK 061553Z 35011KT 6SM BR OVC006 17/16 A2991 RMK AO2 SLP130 T01720161
KAPC Del/Gnd Napa County Airport (Napa, US-CA)
kapcNearest METAR:
KAPC 061554Z 22005KT 1SM BR OVC002 14/13 A3007 RMK AO2 SLP173 T01440133
KAWO CTAF/Clearance Arlington Municipal Airport (Arlington, US-WA)
kawoNearest METAR:
KAWO 061556Z AUTO 00000KT 1/4SM FG OVC002 11/10 A3020 RMK AO2 SLP231 T01060100
KBLI Tower Bellingham International Airport (Bellingham, US-WA)
kbliNearest METAR:
KBLI 061553Z 00000KT M1/4SM R16/0200V0600FT FG VV001 11/11 A3019 RMK AO2 SLP231 T01060106
KBOK/KCEC CTAF Jack Mc Namara Field Airport (Crescent City, US-CA)
kbokNearest METAR:
KBOK 061556Z AUTO 00000KT 1/4SM -RA FG OVC003 11/11 A3010 RMK AO2 SLP192 P0000 T01110111 $
KBOK/KCEC CTAF Jack Mc Namara Field Airport (Crescent City, US-CA)
kcecNearest METAR:
KCEC 061556Z AUTO 05004KT 1 3/4SM BR OVC002 13/13 A3009 RMK AO2 SLP191 T01330128
KCCB CTAF Cable Airport (Upland, US-CA)
kccbNearest METAR:
KCCB 061545Z AUTO 00000KT M1/4SM FG OVC002 16/16 A3005 RMK AO2
KCMA Ground/Tower Camarillo Airport (Camarillo, US-CA)
kcmaNearest METAR:
KCMA 061555Z 00000KT 4SM BR OVC007 18/17 A3004 RMK AO2 SLP179 T01830167
KCNO Ground/Tower Chino Airport (Chino, US-CA)
kcnoNearest METAR:
KCNO 061553Z 00000KT 1 1/2SM HZ OVC007 20/17 A3005 RMK AO2 SLP172 T02000172
KCRQ Tower Mc Clellan-Palomar Airport (Carlsbad, US-CA)
kcrqNearest METAR:
KCRQ 061553Z 20003KT 9SM OVC008 19/17 A3003 RMK AO2 SLP166 T01940172
KCVO CTAF/Misc Corvallis Municipal Airport (Corvallis, US-OR)
kcvoNearest METAR:
KCVO 061556Z AUTO 00000KT 1/4SM FG OVC003 12/11 A3015 RMK AO2 SLP209 P0001 T01170111 RVRNO
KELP Gnd/Twr/App/Dep El Paso International Airport (El Paso, US-TX)
WX MAP UNAVAILABLENearest METAR:
KELP 061551Z 02010KT 10SM RA FEW015 BKN065 BKN100 BKN140 17/14 A3027 RMK AO2 LTG DSNT SW RAB32 SLP203 CLDS TPG MTNS W MTNS OBSCD NW P0002 T01720139
KHAF CTAF Half Moon Bay Airport (Half Moon Bay, US-CA)
khafNearest METAR:
KHAF 061555Z AUTO 08003KT 1/4SM FG OVC003 12/12 A3007 RMK AO2
KHIO Tower (Both) Portland-Hillsboro Airport (Portland, US-OR)
khioNearest METAR:
KHIO 061553Z 00000KT 1SM R13R/P6000FT BR OVC001 11/11 A3013 RMK AO2 SLP201 T01110111
KHWD Ground/Tower Hayward Executive Airport (Hayward, US-CA)
khwdNearest METAR:
KHWD 061554Z 03003KT 1/2SM FG OVC002 13/13 A3007 RMK AO2 SLP191 T01330133
KMMV CTAF Mc Minnville Municipal Airport (Mc Minnville, US-OR)
kmmvNearest METAR:
KMMV 061553Z AUTO 00000KT 1/4SM FG VV002 13/12 A3013 RMK AO2 SLP201 T01280122
KMRY Del/Gnd/Twr Monterey Peninsula Airport (Monterey, US-CA)
kmryNearest METAR:
KMRY 061554Z 00000KT 1/2SM R10R/5000VP6000FT FG OVC003 12/12 A3008 RMK AO2 SLP198 T01220122
KMYF Tower Montgomery Field Airport (San Diego, US-CA)
kmyfNearest METAR:
KMYF 061553Z 14003KT 4SM BR OVC005 18/17 A3004 RMK AO2 SLP170 T01830172
KNKX Del/Gnd/Twr Miramar Marine Corps Air Station (San Diego, US-CA)
knkxNearest METAR:
KNKX 061555Z 00000KT 8SM OVC006 18/17 A3004 RMK AO2 SLP168 T01830172
KNUQ Gnd/Twr Moffett Federal Airfield (Mountain View, US-CA)
knuqNearest METAR:
KNUQ 061555Z AUTO 00000KT 3SM BR OVC003 15/14 A3007 RMK AO2
KOAK Del/Gnd/Twr Metropolitan Oakland International Airport (Oakland, US-CA)
koakNearest METAR:
KOAK 061553Z 30004KT 4SM BR FEW003 OVC005 13/13 A3009 RMK AO2 SLP187 T01330128 $
Seattle App/Dep Olympia Regional Airport (Olympia, US-WA)
kolmNearest METAR:
KOLM 061554Z 02005KT 3/4SM BR OVC002 12/12 A3018 RMK AO2 SLP218 T01170117
KONT Del/Gnd/Twr/App #1 Ontario International Airport (Ontario, US-CA)
kontNearest METAR:
KONT 061553Z 00000KT 1 3/4SM BR OVC006 19/17 A3004 RMK AO2 SLP164 T01890172
KOSH Tower #1 Wittman Regional Airport (Oshkosh, US-WI)
koshNearest METAR:
KOSH 061553Z 31006KT 10SM OVC009 14/13 A3001 RMK AO2 RAE36 CIG 007V014 SLP157 P0007 T01390128
KOTH ATIS/AWOS Southwest Oregon Regional Airport (North Bend, US-OR)
kothNearest METAR:
KOTH 061556Z VRB03KT 1/2SM FG OVC003 12/12 A3012 RMK AO2 SLP200 T01170117 RVRNO
KPAO Tower Palo Alto Airport of Santa Clara County (Palo Alto, US-CA)
kpaoNearest METAR:
KPAO 061547Z 00000KT 4SM BR OVC005 14/13 A3008
KPDX ATIS Portland International Airport (Portland, US-OR)
kpdxNearest METAR:
KPDX 061553Z 31004KT 7SM OVC006 15/13 A3013 RMK AO2 SLP203 T01500128 $
KVUO CTAF/Guard Pearson Field Airport (Vancouver, US-WA)
kvuoNearest METAR:
KVUO 061553Z AUTO 29004KT 7SM OVC007 15/12 A3014 RMK AO2 SLP206 T01500122
KPOC SOCAL App (Pomona) Brackett Field Airport (La Verne, US-CA)
kpocNearest METAR:
KPOC 061547Z 00000KT 2SM BR OVC005 18/16 A3006
KPWT CTAF Bremerton National Airport (Bremerton, US-WA)
kpwtNearest METAR:
KPWT 061556Z AUTO 00000KT 1/4SM FG OVC002 11/11 A3019 RMK AO2 SLP227 T01110111
KRAL/KRIV Gnd/Twr/App Riverside Municipal Airport (Riverside, US-CA)
kralNearest METAR:
KRAL 061553Z 00000KT 1SM BR OVC004 18/17 A3005 RMK AO2 SLP161 T01830172
KRAL/KRIV Gnd/Twr/App Riverside Municipal Airport (Riverside, US-CA)
krivNearest METAR:
KRIV 061555Z 00000KT 1/4SM R32/2000V2200FT FG VV001 17/17 A3006 RMK AO2A SLP169 T01710171
KRHV Ground/Tower Reid-Hillview Airport of Santa Clara County (San Jose, US-CA)
krhvNearest METAR:
KRHV 061557Z 00000KT 4SM OVC006 16/13 A3008 BR
KRNT Gnd/Twr/Unicom Renton Municipal Airport (Renton, US-WA)
krntNearest METAR:
KRNT 061553Z 00000KT 1SM BR OVC003 12/12 A3018 RMK AO2 SLP223 T01220122
KSAN Ramp/Del/Gnd/Twr San Diego International Airport (San Diego, US-CA)
ksanNearest METAR:
KSAN 061551Z 20005KT 6SM BR OVC009 19/17 A3005 RMK AO2 SLP177 T01890167
KSBA Tower Santa Barbara Municipal Airport (Santa Barbara, US-CA)
ksbaNearest METAR:
KSBA 061553Z 33003KT 3SM BR OVC004 17/16 A3004 RMK AO2 SLP172 T01720161 $
KSBP App/Dep San Luis County Regional Airport (San Luis Obispo, US-CA)
ksbpNearest METAR:
KSBP 061506Z 00000KT 1/2SM FG OVC002 11/11 A3006
KSDM Ground/Tower Brown Field Municipal Airport (San Diego, US-CA)
ksdmNearest METAR:
KSDM 061553Z 00000KT 2 1/2SM BR OVC008 19/17 A3005 RMK AO2 CIG 002V010 SLP170 T01890167
KSEA Air-to-Air Seattle-Tacoma International Airport (Seattle, US-WA)
kseaNearest METAR:
KSEA 061553Z 02005KT 1/4SM R16L/P6000FT BR OVC002 13/12 A3018 RMK AO2 SFC VIS 1 1/4 SLP227 T01330122 $
KSEE Del/Gnd/Twr Gillespie Field Airport (San Diego/El Cajon, US-CA)
kseeNearest METAR:
KSEE 061447Z 00000KT 4SM BR OVC008 19/17 A3003
KSJC Ground Norman Y. Mineta San Jose International Airport (San Jose, US-CA)
ksjcNearest METAR:
KSJC 061553Z 00000KT 4SM BR FEW000 BKN005 OVC007 16/14 A3007 RMK AO2 SLP182 T01560139
KSLE Gnd/Twr McNary Field Airport (Salem, US-OR)
ksleNearest METAR:
KSLE 061556Z 03005KT 1SM R31/P6000FT BR OVC003 13/13 A3012 RMK AO2 SLP201 T01330128
KSQL Ground/Tower San Carlos Airport (San Carlos, US-CA)
ksqlNearest METAR:
KSQL 061547Z 00000KT 8SM BR OVC009 14/13 A3008
KTCM Gnd/Twr/Misc McChord Field Airport (Joint Base Lewis-McChord) (Tacoma, US-WA)
ktcmNearest METAR:
KTCM 061555Z AUTO 00000KT 1 3/8SM BR OVC002 12/12 A3017 RMK AO2 SLP221 T01230123 $
KTOA Tower Zamperini Field Airport (Torrance, US-CA)
ktoaNearest METAR:
KTOA 061552Z 00000KT 3SM HZ SCT005 OVC008 21/19 A3003
KTTD Tower Portland-Troutdale Airport (Portland, US-OR)
kttdNearest METAR:
KTTD 061553Z 00000KT 7SM OVC004 14/13 A3013 RMK AO2 SLP201 T01440128
KUAO Tower Aurora State Airport (Aurora, US-OR)
kuaoNearest METAR:
KUAO 061553Z 00000KT 3SM BR OVC005 13/12 A3014 RMK AO2 SLP204 T01280122
KWHP/KVNY/KBUR App/Dep Bob Hope Airport (Burbank, US-CA)
kwhpNearest METAR:
KWHP 061500Z 00000KT 1 1/2SM FG OVC007 17/17 A3006
KWVI CTAF/NORCAL App Watsonville Municipal Airport (Watsonville, US-CA)
kwviNearest METAR:
KWVI 061553Z AUTO 00000KT 3/4SM BR VV003 11/11 A3008 RMK AO2 SLP187 T01110111
MMTJ Twr/Ramp Tijuana International Airport (Tijuana, Mexico)
mmtjNearest METAR:
MMTJ 061543Z 00000KT 2SM BR OVC008 19/18 A3007 RMK 8/6//
PADQ Gnd/Twr/ZAN Kodiak Airport (Kodiak, US-AK)
padqNearest METAR:
PADQ 061553Z 09008KT 3/4SM BR VV003 11/09 A3018 RMK AO2 RAB1457E11 SLP220 P0001 T01110094
SBLO Twr/App/Center Londrina Airport (Londrina, Brazil)
WX MAP UNAVAILABLENearest METAR:
SBLO 061600Z 10006KT 9999 FEW030 FEW035TCU SCT090 24/22 Q1009 RETSRA
TNCA Twr/App/Apron Reina Beatrix International Airport (Oranjestad, Aruba)
WX MAP UNAVAILABLENearest METAR:
TNCA 061600Z 31006KT 5000 TSRA SCT010CB BKN014 26/25 Q1011 TEMPO 07010G30KT 3000 TSRA FEW012CB SCT015TCU BKN030
TTCP Gnd/Twr/App A. N. R. Robinson International Airport (Scarborough, Trinidad and Tobago)
WX MAP UNAVAILABLENearest METAR:
TTCP 061500Z 13003KT 3000 -TSRA VCSH FEW008CB BKN035 24/22 Q1013 NOSIG RMK CB NW/ SE/ S VCSH ALQDS